sensor_id;sensor_type;location;lat;lon;timestamp;temperature;humidity
439;DHT22;206;48.782;9.252;2023-07-31T00:02:00;19.30;30.50
439;DHT22;206;48.782;9.252;2023-07-31T00:04:26;19.20;31.70
439;DHT22;206;48.782;9.252;2023-07-31T00:06:52;19.20;31.70
439;DHT22;206;48.782;9.252;2023-07-31T00:09:17;19.20;32.50
439;DHT22;206;48.782;9.252;2023-07-31T00:11:43;19.20;31.80
439;DHT22;206;48.782;9.252;2023-07-31T00:14:08;19.10;31.60
439;DHT22;206;48.782;9.252;2023-07-31T00:16:34;19.10;31.60
439;DHT22;206;48.782;9.252;2023-07-31T00:18:59;19.20;31.70
439;DHT22;206;48.782;9.252;2023-07-31T00:21:25;19.00;31.80
439;DHT22;206;48.782;9.252;2023-07-31T00:23:51;18.90;32.30
439;DHT22;206;48.782;9.252;2023-07-31T00:26:16;18.80;33.20
439;DHT22;206;48.782;9.252;2023-07-31T00:28:42;18.70;34.00
439;DHT22;206;48.782;9.252;2023-07-31T00:31:07;18.60;34.60
439;DHT22;206;48.782;9.252;2023-07-31T00:33:34;18.60;35.90
439;DHT22;206;48.782;9.252;2023-07-31T00:36:00;18.50;36.90
439;DHT22;206;48.782;9.252;2023-07-31T00:38:26;18.40;38.00
439;DHT22;206;48.782;9.252;2023-07-31T00:40:52;18.50;38.20
439;DHT22;206;48.782;9.252;2023-07-31T00:43:17;18.50;38.50
439;DHT22;206;48.782;9.252;2023-07-31T00:45:44;18.40;38.50
439;DHT22;206;48.782;9.252;2023-07-31T00:48:09;18.30;39.30
439;DHT22;206;48.782;9.252;2023-07-31T00:50:35;18.30;40.00
439;DHT22;206;48.782;9.252;2023-07-31T00:53:01;18.20;40.40
439;DHT22;206;48.782;9.252;2023-07-31T00:55:27;18.30;41.20
439;DHT22;206;48.782;9.252;2023-07-31T00:57:53;18.30;40.40
439;DHT22;206;48.782;9.252;2023-07-31T01:00:21;18.40;40.00
439;DHT22;206;48.782;9.252;2023-07-31T01:02:47;18.40;39.50
439;DHT22;206;48.782;9.252;2023-07-31T01:05:13;18.40;39.30
439;DHT22;206;48.782;9.252;2023-07-31T01:07:45;18.40;39.00
439;DHT22;206;48.782;9.252;2023-07-31T01:10:21;18.40;39.10
439;DHT22;206;48.782;9.252;2023-07-31T01:12:50;18.30;38.90
439;DHT22;206;48.782;9.252;2023-07-31T01:15:17;18.30;39.10
439;DHT22;206;48.782;9.252;2023-07-31T01:17:43;18.20;39.40
439;DHT22;206;48.782;9.252;2023-07-31T01:20:12;18.10;39.30
439;DHT22;206;48.782;9.252;2023-07-31T01:28:05;17.90;40.90
439;DHT22;206;48.782;9.252;2023-07-31T01:30:34;17.90;40.90
439;DHT22;206;48.782;9.252;2023-07-31T01:33:03;17.80;40.70
439;DHT22;206;48.782;9.252;2023-07-31T01:35:33;17.80;40.70
439;DHT22;206;48.782;9.252;2023-07-31T01:37:59;17.80;40.70
439;DHT22;206;48.782;9.252;2023-07-31T01:40:25;17.80;40.70
439;DHT22;206;48.782;9.252;2023-07-31T01:42:50;17.90;40.80
439;DHT22;206;48.782;9.252;2023-07-31T01:45:16;17.90;40.80
439;DHT22;206;48.782;9.252;2023-07-31T01:47:41;17.90;41.10
439;DHT22;206;48.782;9.252;2023-07-31T01:50:07;18.00;41.90
439;DHT22;206;48.782;9.252;2023-07-31T01:52:33;18.00;42.50
439;DHT22;206;48.782;9.252;2023-07-31T01:54:59;18.10;42.70
439;DHT22;206;48.782;9.252;2023-07-31T01:57:24;18.00;43.40
439;DHT22;206;48.782;9.252;2023-07-31T01:59:50;17.90;44.10
439;DHT22;206;48.782;9.252;2023-07-31T02:02:16;17.80;44.60
439;DHT22;206;48.782;9.252;2023-07-31T02:04:41;17.60;45.40
439;DHT22;206;48.782;9.252;2023-07-31T02:07:07;17.50;46.50
439;DHT22;206;48.782;9.252;2023-07-31T02:09:33;17.50;47.00
439;DHT22;206;48.782;9.252;2023-07-31T02:11:58;17.40;47.50
439;DHT22;206;48.782;9.252;2023-07-31T02:14:24;17.40;48.00
439;DHT22;206;48.782;9.252;2023-07-31T02:16:50;17.30;48.20
439;DHT22;206;48.782;9.252;2023-07-31T02:19:15;17.30;48.60
439;DHT22;206;48.782;9.252;2023-07-31T02:21:41;17.30;48.30
439;DHT22;206;48.782;9.252;2023-07-31T02:24:06;17.30;48.60
439;DHT22;206;48.782;9.252;2023-07-31T02:26:32;17.20;47.90
439;DHT22;206;48.782;9.252;2023-07-31T02:28:57;17.30;47.30
439;DHT22;206;48.782;9.252;2023-07-31T02:31:23;17.30;47.40
439;DHT22;206;48.782;9.252;2023-07-31T02:33:48;17.30;47.60
439;DHT22;206;48.782;9.252;2023-07-31T02:36:14;17.20;48.00
439;DHT22;206;48.782;9.252;2023-07-31T02:38:40;17.20;48.30
439;DHT22;206;48.782;9.252;2023-07-31T02:41:05;17.20;48.70
439;DHT22;206;48.782;9.252;2023-07-31T02:43:31;17.10;49.00
439;DHT22;206;48.782;9.252;2023-07-31T02:45:56;17.10;48.70
439;DHT22;206;48.782;9.252;2023-07-31T02:48:22;17.20;48.40
439;DHT22;206;48.782;9.252;2023-07-31T02:50:48;17.30;46.80
439;DHT22;206;48.782;9.252;2023-07-31T02:53:13;17.40;45.90
439;DHT22;206;48.782;9.252;2023-07-31T02:55:40;17.50;45.10
439;DHT22;206;48.782;9.252;2023-07-31T02:58:06;17.50;44.30
439;DHT22;206;48.782;9.252;2023-07-31T03:00:31;17.50;44.20
439;DHT22;206;48.782;9.252;2023-07-31T03:02:57;17.50;44.10
439;DHT22;206;48.782;9.252;2023-07-31T03:05:22;17.50;44.20
439;DHT22;206;48.782;9.252;2023-07-31T03:07:48;17.60;43.80
439;DHT22;206;48.782;9.252;2023-07-31T03:10:14;17.60;43.10
439;DHT22;206;48.782;9.252;2023-07-31T03:12:40;17.70;43.00
439;DHT22;206;48.782;9.252;2023-07-31T03:15:07;17.80;42.80
439;DHT22;206;48.782;9.252;2023-07-31T03:17:32;17.80;42.20
439;DHT22;206;48.782;9.252;2023-07-31T03:19:58;17.80;42.00
439;DHT22;206;48.782;9.252;2023-07-31T03:22:23;17.70;41.60
439;DHT22;206;48.782;9.252;2023-07-31T03:24:49;17.70;42.00
439;DHT22;206;48.782;9.252;2023-07-31T03:27:15;17.70;42.10
439;DHT22;206;48.782;9.252;2023-07-31T03:29:40;17.60;42.30
439;DHT22;206;48.782;9.252;2023-07-31T03:32:06;17.50;42.40
439;DHT22;206;48.782;9.252;2023-07-31T03:34:32;17.50;42.40
439;DHT22;206;48.782;9.252;2023-07-31T03:36:58;17.40;43.10
439;DHT22;206;48.782;9.252;2023-07-31T03:39:23;17.30;43.20
439;DHT22;206;48.782;9.252;2023-07-31T03:41:49;17.30;43.40
439;DHT22;206;48.782;9.252;2023-07-31T03:44:15;17.30;43.80
439;DHT22;206;48.782;9.252;2023-07-31T03:46:40;17.20;43.70
439;DHT22;206;48.782;9.252;2023-07-31T03:49:06;17.20;44.00
439;DHT22;206;48.782;9.252;2023-07-31T03:51:31;17.20;43.80
439;DHT22;206;48.782;9.252;2023-07-31T03:53:57;17.20;44.00
439;DHT22;206;48.782;9.252;2023-07-31T03:56:22;17.20;44.50
439;DHT22;206;48.782;9.252;2023-07-31T03:58:48;17.10;44.60
439;DHT22;206;48.782;9.252;2023-07-31T04:01:14;17.10;45.10
439;DHT22;206;48.782;9.252;2023-07-31T04:03:39;17.10;45.10
439;DHT22;206;48.782;9.252;2023-07-31T04:06:05;17.10;45.10
439;DHT22;206;48.782;9.252;2023-07-31T04:08:32;17.10;44.80
439;DHT22;206;48.782;9.252;2023-07-31T04:10:57;17.10;44.60
439;DHT22;206;48.782;9.252;2023-07-31T04:13:23;17.20;44.00
439;DHT22;206;48.782;9.252;2023-07-31T04:15:50;17.20;44.40
439;DHT22;206;48.782;9.252;2023-07-31T04:18:19;17.30;44.30
439;DHT22;206;48.782;9.252;2023-07-31T04:20:45;17.20;44.00
439;DHT22;206;48.782;9.252;2023-07-31T04:23:11;17.20;44.40
439;DHT22;206;48.782;9.252;2023-07-31T04:25:36;17.20;44.30
439;DHT22;206;48.782;9.252;2023-07-31T04:28:02;17.20;44.50
439;DHT22;206;48.782;9.252;2023-07-31T04:30:27;17.30;44.60
439;DHT22;206;48.782;9.252;2023-07-31T04:32:53;17.40;44.10
439;DHT22;206;48.782;9.252;2023-07-31T04:35:19;17.40;44.30
439;DHT22;206;48.782;9.252;2023-07-31T04:37:44;17.50;43.30
439;DHT22;206;48.782;9.252;2023-07-31T04:40:14;17.50;43.00
439;DHT22;206;48.782;9.252;2023-07-31T04:42:39;17.60;43.10
439;DHT22;206;48.782;9.252;2023-07-31T04:45:05;17.70;42.20
439;DHT22;206;48.782;9.252;2023-07-31T04:47:31;17.80;41.90
439;DHT22;206;48.782;9.252;2023-07-31T04:49:56;17.80;41.40
439;DHT22;206;48.782;9.252;2023-07-31T04:52:22;17.80;41.60
439;DHT22;206;48.782;9.252;2023-07-31T04:54:48;17.80;41.50
439;DHT22;206;48.782;9.252;2023-07-31T04:57:14;17.80;41.70
439;DHT22;206;48.782;9.252;2023-07-31T04:59:39;17.80;41.60
439;DHT22;206;48.782;9.252;2023-07-31T05:02:06;17.70;42.30
439;DHT22;206;48.782;9.252;2023-07-31T05:04:32;17.90;41.60
439;DHT22;206;48.782;9.252;2023-07-31T05:06:57;18.00;40.90
439;DHT22;206;48.782;9.252;2023-07-31T05:09:23;18.00;40.90
439;DHT22;206;48.782;9.252;2023-07-31T05:11:49;17.90;41.10
439;DHT22;206;48.782;9.252;2023-07-31T05:14:14;17.80;41.70
439;DHT22;206;48.782;9.252;2023-07-31T05:16:41;17.90;41.80
439;DHT22;206;48.782;9.252;2023-07-31T05:19:06;18.00;40.90
439;DHT22;206;48.782;9.252;2023-07-31T05:21:32;18.00;40.90
439;DHT22;206;48.782;9.252;2023-07-31T05:23:57;17.90;41.60
439;DHT22;206;48.782;9.252;2023-07-31T05:26:23;17.90;41.40
439;DHT22;206;48.782;9.252;2023-07-31T05:28:49;18.10;41.00
439;DHT22;206;48.782;9.252;2023-07-31T05:31:14;18.10;41.00
439;DHT22;206;48.782;9.252;2023-07-31T05:33:40;18.10;41.00
439;DHT22;206;48.782;9.252;2023-07-31T05:36:06;18.30;40.50
439;DHT22;206;48.782;9.252;2023-07-31T05:38:31;18.30;40.50
439;DHT22;206;48.782;9.252;2023-07-31T05:40:57;18.30;40.60
439;DHT22;206;48.782;9.252;2023-07-31T05:43:22;18.20;40.80
439;DHT22;206;48.782;9.252;2023-07-31T05:45:48;18.30;40.60
439;DHT22;206;48.782;9.252;2023-07-31T05:48:13;18.40;40.30
439;DHT22;206;48.782;9.252;2023-07-31T05:50:39;18.50;39.60
439;DHT22;206;48.782;9.252;2023-07-31T05:53:05;18.60;39.20
439;DHT22;206;48.782;9.252;2023-07-31T05:55:31;18.70;38.60
439;DHT22;206;48.782;9.252;2023-07-31T05:57:57;18.80;38.40
439;DHT22;206;48.782;9.252;2023-07-31T06:00:22;18.90;38.00
439;DHT22;206;48.782;9.252;2023-07-31T06:02:53;19.00;37.60
439;DHT22;206;48.782;9.252;2023-07-31T06:05:19;19.10;36.70
439;DHT22;206;48.782;9.252;2023-07-31T06:07:44;19.30;35.50
439;DHT22;206;48.782;9.252;2023-07-31T06:10:10;19.30;34.40
439;DHT22;206;48.782;9.252;2023-07-31T06:12:35;19.40;33.60
439;DHT22;206;48.782;9.252;2023-07-31T06:15:02;19.50;32.50
439;DHT22;206;48.782;9.252;2023-07-31T06:17:28;19.60;32.10
439;DHT22;206;48.782;9.252;2023-07-31T06:19:54;19.70;31.90
439;DHT22;206;48.782;9.252;2023-07-31T06:22:20;19.80;31.60
439;DHT22;206;48.782;9.252;2023-07-31T06:24:46;19.80;31.30
439;DHT22;206;48.782;9.252;2023-07-31T06:27:11;19.90;31.30
439;DHT22;206;48.782;9.252;2023-07-31T06:29:37;20.00;30.70
439;DHT22;206;48.782;9.252;2023-07-31T06:32:03;20.10;30.60
439;DHT22;206;48.782;9.252;2023-07-31T06:34:29;20.20;29.60
439;DHT22;206;48.782;9.252;2023-07-31T06:36:56;20.30;29.50
439;DHT22;206;48.782;9.252;2023-07-31T06:39:21;20.40;29.30
439;DHT22;206;48.782;9.252;2023-07-31T06:41:47;20.50;29.00
439;DHT22;206;48.782;9.252;2023-07-31T06:44:13;20.60;29.00
439;DHT22;206;48.782;9.252;2023-07-31T06:46:38;20.80;28.50
439;DHT22;206;48.782;9.252;2023-07-31T06:49:04;21.00;27.80
439;DHT22;206;48.782;9.252;2023-07-31T06:51:29;21.10;27.60
439;DHT22;206;48.782;9.252;2023-07-31T06:53:57;21.30;27.30
439;DHT22;206;48.782;9.252;2023-07-31T06:56:23;21.50;27.20
439;DHT22;206;48.782;9.252;2023-07-31T06:58:48;21.60;25.70
439;DHT22;206;48.782;9.252;2023-07-31T07:01:14;21.90;25.20
439;DHT22;206;48.782;9.252;2023-07-31T07:03:40;22.10;25.00
439;DHT22;206;48.782;9.252;2023-07-31T07:06:05;22.30;24.40
439;DHT22;206;48.782;9.252;2023-07-31T07:08:31;22.50;23.10
439;DHT22;206;48.782;9.252;2023-07-31T07:10:56;22.60;22.90
439;DHT22;206;48.782;9.252;2023-07-31T07:13:22;22.60;22.60
439;DHT22;206;48.782;9.252;2023-07-31T07:15:49;22.70;22.80
439;DHT22;206;48.782;9.252;2023-07-31T07:18:15;22.90;22.40
439;DHT22;206;48.782;9.252;2023-07-31T07:20:45;23.00;22.20
439;DHT22;206;48.782;9.252;2023-07-31T07:23:11;23.10;21.50
439;DHT22;206;48.782;9.252;2023-07-31T07:25:38;23.40;21.50
439;DHT22;206;48.782;9.252;2023-07-31T07:28:03;23.50;21.20
439;DHT22;206;48.782;9.252;2023-07-31T07:30:29;23.60;21.00
439;DHT22;206;48.782;9.252;2023-07-31T07:32:55;23.70;20.80
439;DHT22;206;48.782;9.252;2023-07-31T07:35:20;23.80;20.60
439;DHT22;206;48.782;9.252;2023-07-31T07:37:48;23.90;20.60
439;DHT22;206;48.782;9.252;2023-07-31T07:40:15;24.10;19.60
439;DHT22;206;48.782;9.252;2023-07-31T07:42:41;24.10;19.40
439;DHT22;206;48.782;9.252;2023-07-31T07:45:07;24.10;19.50
439;DHT22;206;48.782;9.252;2023-07-31T07:47:32;24.10;19.40
439;DHT22;206;48.782;9.252;2023-07-31T07:49:58;23.90;19.50
439;DHT22;206;48.782;9.252;2023-07-31T07:52:24;23.90;19.70
439;DHT22;206;48.782;9.252;2023-07-31T07:54:49;23.80;19.60
439;DHT22;206;48.782;9.252;2023-07-31T07:57:15;23.90;19.60
439;DHT22;206;48.782;9.252;2023-07-31T07:59:41;23.90;19.30
439;DHT22;206;48.782;9.252;2023-07-31T08:02:06;24.00;19.20
439;DHT22;206;48.782;9.252;2023-07-31T08:04:32;23.80;18.80
439;DHT22;206;48.782;9.252;2023-07-31T08:06:58;23.70;18.80
439;DHT22;206;48.782;9.252;2023-07-31T08:09:23;23.70;18.80
439;DHT22;206;48.782;9.252;2023-07-31T08:11:49;23.80;19.10
439;DHT22;206;48.782;9.252;2023-07-31T08:14:14;23.80;18.90
439;DHT22;206;48.782;9.252;2023-07-31T08:16:40;23.80;19.10
439;DHT22;206;48.782;9.252;2023-07-31T08:19:05;23.90;19.00
439;DHT22;206;48.782;9.252;2023-07-31T08:21:31;23.90;18.40
439;DHT22;206;48.782;9.252;2023-07-31T08:23:57;23.90;18.10
439;DHT22;206;48.782;9.252;2023-07-31T08:26:23;23.80;18.00
439;DHT22;206;48.782;9.252;2023-07-31T08:28:48;23.80;18.00
439;DHT22;206;48.782;9.252;2023-07-31T08:31:14;23.80;18.70
439;DHT22;206;48.782;9.252;2023-07-31T08:33:40;23.90;18.30
439;DHT22;206;48.782;9.252;2023-07-31T08:36:06;24.00;18.10
439;DHT22;206;48.782;9.252;2023-07-31T08:38:32;24.20;18.30
439;DHT22;206;48.782;9.252;2023-07-31T08:40:57;24.40;17.70
439;DHT22;206;48.782;9.252;2023-07-31T08:43:26;24.60;17.40
439;DHT22;206;48.782;9.252;2023-07-31T08:45:52;24.90;16.90
439;DHT22;206;48.782;9.252;2023-07-31T08:48:20;24.90;16.90
439;DHT22;206;48.782;9.252;2023-07-31T08:50:46;25.00;16.70
439;DHT22;206;48.782;9.252;2023-07-31T08:53:11;25.10;16.50
439;DHT22;206;48.782;9.252;2023-07-31T08:55:38;25.20;16.20
439;DHT22;206;48.782;9.252;2023-07-31T08:58:04;25.20;15.90
439;DHT22;206;48.782;9.252;2023-07-31T09:00:31;25.20;16.00
439;DHT22;206;48.782;9.252;2023-07-31T09:03:03;25.20;16.10
439;DHT22;206;48.782;9.252;2023-07-31T09:05:32;25.30;16.30
439;DHT22;206;48.782;9.252;2023-07-31T09:07:58;25.30;16.10
439;DHT22;206;48.782;9.252;2023-07-31T09:10:24;25.30;16.00
439;DHT22;206;48.782;9.252;2023-07-31T09:12:51;25.20;16.40
439;DHT22;206;48.782;9.252;2023-07-31T09:15:17;25.20;16.40
439;DHT22;206;48.782;9.252;2023-07-31T09:17:43;25.30;16.20
439;DHT22;206;48.782;9.252;2023-07-31T09:20:19;25.40;16.00
439;DHT22;206;48.782;9.252;2023-07-31T09:22:46;25.30;16.00
439;DHT22;206;48.782;9.252;2023-07-31T09:25:22;25.20;16.30
439;DHT22;206;48.782;9.252;2023-07-31T09:27:53;25.30;16.30
439;DHT22;206;48.782;9.252;2023-07-31T09:30:20;25.30;16.40
439;DHT22;206;48.782;9.252;2023-07-31T09:32:47;25.30;16.10
439;DHT22;206;48.782;9.252;2023-07-31T09:35:20;25.20;16.50
439;DHT22;206;48.782;9.252;2023-07-31T09:37:53;25.30;16.10
439;DHT22;206;48.782;9.252;2023-07-31T09:40:46;25.10;16.10
439;DHT22;206;48.782;9.252;2023-07-31T09:43:14;25.10;16.20
439;DHT22;206;48.782;9.252;2023-07-31T09:45:43;25.10;16.80
439;DHT22;206;48.782;9.252;2023-07-31T09:48:13;25.10;16.70
439;DHT22;206;48.782;9.252;2023-07-31T09:50:43;25.00;16.20
439;DHT22;206;48.782;9.252;2023-07-31T09:53:09;25.10;16.30
439;DHT22;206;48.782;9.252;2023-07-31T09:55:36;25.20;16.50
439;DHT22;206;48.782;9.252;2023-07-31T09:58:20;25.20;16.20
439;DHT22;206;48.782;9.252;2023-07-31T10:00:46;25.30;16.00
439;DHT22;206;48.782;9.252;2023-07-31T10:03:12;25.30;16.00
439;DHT22;206;48.782;9.252;2023-07-31T10:05:50;25.30;16.00
439;DHT22;206;48.782;9.252;2023-07-31T10:08:18;25.30;16.00
439;DHT22;206;48.782;9.252;2023-07-31T10:10:46;25.30;16.20
439;DHT22;206;48.782;9.252;2023-07-31T10:13:12;25.20;16.10
439;DHT22;206;48.782;9.252;2023-07-31T10:15:39;25.20;16.30
439;DHT22;206;48.782;9.252;2023-07-31T10:18:07;25.30;16.60
439;DHT22;206;48.782;9.252;2023-07-31T10:20:32;25.40;16.50
439;DHT22;206;48.782;9.252;2023-07-31T10:22:59;25.50;16.20
439;DHT22;206;48.782;9.252;2023-07-31T10:25:26;25.60;16.20
439;DHT22;206;48.782;9.252;2023-07-31T10:27:53;25.70;16.00
439;DHT22;206;48.782;9.252;2023-07-31T10:30:24;25.70;15.70
439;DHT22;206;48.782;9.252;2023-07-31T10:32:52;25.60;15.50
439;DHT22;206;48.782;9.252;2023-07-31T10:35:19;25.50;15.70
439;DHT22;206;48.782;9.252;2023-07-31T10:37:47;25.50;15.30
439;DHT22;206;48.782;9.252;2023-07-31T10:40:20;25.40;15.00
439;DHT22;206;48.782;9.252;2023-07-31T10:42:50;25.40;15.30
439;DHT22;206;48.782;9.252;2023-07-31T10:45:35;25.50;15.30
439;DHT22;206;48.782;9.252;2023-07-31T10:48:22;25.50;15.20
439;DHT22;206;48.782;9.252;2023-07-31T10:50:56;25.50;15.50
439;DHT22;206;48.782;9.252;2023-07-31T10:53:32;25.60;15.60
439;DHT22;206;48.782;9.252;2023-07-31T10:56:05;25.70;15.70
439;DHT22;206;48.782;9.252;2023-07-31T10:58:31;25.70;15.50
439;DHT22;206;48.782;9.252;2023-07-31T11:01:04;25.70;14.70
439;DHT22;206;48.782;9.252;2023-07-31T11:03:48;25.70;14.90
439;DHT22;206;48.782;9.252;2023-07-31T11:06:15;25.70;15.00
439;DHT22;206;48.782;9.252;2023-07-31T11:08:49;25.80;15.30
439;DHT22;206;48.782;9.252;2023-07-31T11:11:17;25.80;14.70
439;DHT22;206;48.782;9.252;2023-07-31T11:13:45;25.80;15.00
439;DHT22;206;48.782;9.252;2023-07-31T11:16:12;25.90;15.10
439;DHT22;206;48.782;9.252;2023-07-31T11:18:42;26.00;14.30
439;DHT22;206;48.782;9.252;2023-07-31T11:21:11;26.00;14.40
439;DHT22;206;48.782;9.252;2023-07-31T11:23:37;25.90;14.60
439;DHT22;206;48.782;9.252;2023-07-31T11:26:06;25.90;14.50
439;DHT22;206;48.782;9.252;2023-07-31T11:28:35;25.90;14.50
439;DHT22;206;48.782;9.252;2023-07-31T11:31:02;25.90;14.80
439;DHT22;206;48.782;9.252;2023-07-31T11:33:28;25.90;14.80
439;DHT22;206;48.782;9.252;2023-07-31T11:35:53;25.90;14.50
439;DHT22;206;48.782;9.252;2023-07-31T11:38:27;25.90;14.50
439;DHT22;206;48.782;9.252;2023-07-31T11:40:57;26.00;14.60
439;DHT22;206;48.782;9.252;2023-07-31T11:43:23;26.00;14.80
439;DHT22;206;48.782;9.252;2023-07-31T11:46:00;26.00;14.70
439;DHT22;206;48.782;9.252;2023-07-31T11:48:31;26.00;14.50
439;DHT22;206;48.782;9.252;2023-07-31T11:51:00;26.00;14.60
439;DHT22;206;48.782;9.252;2023-07-31T11:53:30;25.90;14.70
439;DHT22;206;48.782;9.252;2023-07-31T11:55:58;25.80;14.70
439;DHT22;206;48.782;9.252;2023-07-31T11:58:25;25.90;14.90
439;DHT22;206;48.782;9.252;2023-07-31T12:00:52;25.90;15.00
439;DHT22;206;48.782;9.252;2023-07-31T12:03:18;25.90;15.00
439;DHT22;206;48.782;9.252;2023-07-31T12:05:44;26.00;15.00
439;DHT22;206;48.782;9.252;2023-07-31T12:08:11;26.10;14.90
439;DHT22;206;48.782;9.252;2023-07-31T12:10:40;26.10;14.60
439;DHT22;206;48.782;9.252;2023-07-31T12:13:10;26.20;14.90
439;DHT22;206;48.782;9.252;2023-07-31T12:15:43;26.30;14.70
439;DHT22;206;48.782;9.252;2023-07-31T12:18:13;26.30;14.60
439;DHT22;206;48.782;9.252;2023-07-31T12:20:47;26.30;14.80
439;DHT22;206;48.782;9.252;2023-07-31T12:23:32;26.40;14.30
439;DHT22;206;48.782;9.252;2023-07-31T12:26:06;26.30;14.30
439;DHT22;206;48.782;9.252;2023-07-31T12:28:43;26.20;14.60
439;DHT22;206;48.782;9.252;2023-07-31T12:31:11;26.20;14.80
439;DHT22;206;48.782;9.252;2023-07-31T12:33:38;26.20;14.70
439;DHT22;206;48.782;9.252;2023-07-31T12:36:10;26.00;14.80
439;DHT22;206;48.782;9.252;2023-07-31T12:38:35;25.90;15.20
439;DHT22;206;48.782;9.252;2023-07-31T12:41:01;25.90;15.20
439;DHT22;206;48.782;9.252;2023-07-31T12:43:26;25.90;15.10
439;DHT22;206;48.782;9.252;2023-07-31T12:45:54;26.00;15.20
439;DHT22;206;48.782;9.252;2023-07-31T12:48:20;26.10;15.20
439;DHT22;206;48.782;9.252;2023-07-31T12:50:45;26.00;15.10
439;DHT22;206;48.782;9.252;2023-07-31T12:53:11;26.00;15.10
439;DHT22;206;48.782;9.252;2023-07-31T12:55:36;25.90;15.10
439;DHT22;206;48.782;9.252;2023-07-31T12:58:02;25.90;15.40
439;DHT22;206;48.782;9.252;2023-07-31T13:00:28;25.90;15.40
439;DHT22;206;48.782;9.252;2023-07-31T13:02:55;25.90;15.40
439;DHT22;206;48.782;9.252;2023-07-31T13:05:21;25.90;15.40
439;DHT22;206;48.782;9.252;2023-07-31T13:07:50;25.90;15.40
439;DHT22;206;48.782;9.252;2023-07-31T13:10:15;25.90;15.40
439;DHT22;206;48.782;9.252;2023-07-31T13:12:41;25.90;15.20
439;DHT22;206;48.782;9.252;2023-07-31T13:15:07;25.90;15.60
439;DHT22;206;48.782;9.252;2023-07-31T13:17:33;25.90;15.60
439;DHT22;206;48.782;9.252;2023-07-31T13:19:59;25.90;15.60
439;DHT22;206;48.782;9.252;2023-07-31T13:22:26;26.00;15.90
439;DHT22;206;48.782;9.252;2023-07-31T13:24:52;26.00;15.30
439;DHT22;206;48.782;9.252;2023-07-31T13:27:18;25.90;15.30
439;DHT22;206;48.782;9.252;2023-07-31T13:29:46;25.90;15.60
439;DHT22;206;48.782;9.252;2023-07-31T13:32:11;26.00;15.90
439;DHT22;206;48.782;9.252;2023-07-31T13:34:37;26.00;15.50
439;DHT22;206;48.782;9.252;2023-07-31T13:37:03;26.20;15.30
439;DHT22;206;48.782;9.252;2023-07-31T13:39:31;26.30;14.90
439;DHT22;206;48.782;9.252;2023-07-31T13:41:57;26.30;14.60
439;DHT22;206;48.782;9.252;2023-07-31T13:44:22;26.30;14.20
439;DHT22;206;48.782;9.252;2023-07-31T13:46:48;26.50;14.30
439;DHT22;206;48.782;9.252;2023-07-31T13:49:14;26.60;14.60
439;DHT22;206;48.782;9.252;2023-07-31T13:51:39;26.60;13.70
439;DHT22;206;48.782;9.252;2023-07-31T13:54:05;26.70;13.70
439;DHT22;206;48.782;9.252;2023-07-31T13:56:32;26.80;13.80
439;DHT22;206;48.782;9.252;2023-07-31T13:58:58;26.80;13.70
439;DHT22;206;48.782;9.252;2023-07-31T14:01:23;26.70;13.80
439;DHT22;206;48.782;9.252;2023-07-31T14:03:49;26.70;13.90
439;DHT22;206;48.782;9.252;2023-07-31T14:06:15;26.70;13.90
439;DHT22;206;48.782;9.252;2023-07-31T14:08:40;26.70;14.00
439;DHT22;206;48.782;9.252;2023-07-31T14:11:06;26.70;14.00
439;DHT22;206;48.782;9.252;2023-07-31T14:13:32;26.60;14.10
439;DHT22;206;48.782;9.252;2023-07-31T14:15:58;26.50;14.20
439;DHT22;206;48.782;9.252;2023-07-31T14:18:23;26.50;14.30
439;DHT22;206;48.782;9.252;2023-07-31T14:20:49;26.40;14.50
439;DHT22;206;48.782;9.252;2023-07-31T14:23:15;26.40;14.80
439;DHT22;206;48.782;9.252;2023-07-31T14:25:41;26.30;15.00
439;DHT22;206;48.782;9.252;2023-07-31T14:28:06;26.30;15.50
439;DHT22;206;48.782;9.252;2023-07-31T14:30:32;26.20;15.10
439;DHT22;206;48.782;9.252;2023-07-31T14:32:58;26.20;15.10
439;DHT22;206;48.782;9.252;2023-07-31T14:35:25;26.20;15.20
439;DHT22;206;48.782;9.252;2023-07-31T14:37:50;26.30;15.40
439;DHT22;206;48.782;9.252;2023-07-31T14:40:16;26.30;15.40
439;DHT22;206;48.782;9.252;2023-07-31T14:42:41;26.40;15.20
439;DHT22;206;48.782;9.252;2023-07-31T14:45:07;26.50;15.20
439;DHT22;206;48.782;9.252;2023-07-31T14:47:33;26.60;15.20
439;DHT22;206;48.782;9.252;2023-07-31T14:50:01;26.70;15.00
439;DHT22;206;48.782;9.252;2023-07-31T14:52:26;26.80;15.10
439;DHT22;206;48.782;9.252;2023-07-31T14:54:52;26.90;14.60
439;DHT22;206;48.782;9.252;2023-07-31T14:57:18;27.00;15.10
439;DHT22;206;48.782;9.252;2023-07-31T14:59:45;27.00;14.60
439;DHT22;206;48.782;9.252;2023-07-31T15:02:10;27.10;15.00
439;DHT22;206;48.782;9.252;2023-07-31T15:04:36;27.10;15.20
439;DHT22;206;48.782;9.252;2023-07-31T15:07:02;27.20;15.10
439;DHT22;206;48.782;9.252;2023-07-31T15:09:27;27.30;15.00
439;DHT22;206;48.782;9.252;2023-07-31T15:11:53;27.40;14.60
439;DHT22;206;48.782;9.252;2023-07-31T15:14:19;27.40;13.80
439;DHT22;206;48.782;9.252;2023-07-31T15:16:45;27.40;12.80
439;DHT22;206;48.782;9.252;2023-07-31T15:19:11;27.30;13.20
439;DHT22;206;48.782;9.252;2023-07-31T15:21:37;27.30;13.30
439;DHT22;206;48.782;9.252;2023-07-31T15:24:03;27.20;13.40
439;DHT22;206;48.782;9.252;2023-07-31T15:26:29;27.30;13.20
439;DHT22;206;48.782;9.252;2023-07-31T15:29:03;27.20;13.00
439;DHT22;206;48.782;9.252;2023-07-31T15:31:31;27.20;13.20
439;DHT22;206;48.782;9.252;2023-07-31T15:33:57;27.20;13.10
439;DHT22;206;48.782;9.252;2023-07-31T15:36:22;27.30;13.00
439;DHT22;206;48.782;9.252;2023-07-31T15:38:51;27.30;12.70
439;DHT22;206;48.782;9.252;2023-07-31T15:41:18;27.20;12.90
439;DHT22;206;48.782;9.252;2023-07-31T15:43:44;27.20;12.80
439;DHT22;206;48.782;9.252;2023-07-31T15:46:11;27.30;12.90
439;DHT22;206;48.782;9.252;2023-07-31T15:48:48;27.20;12.70
439;DHT22;206;48.782;9.252;2023-07-31T15:51:15;27.30;12.80
439;DHT22;206;48.782;9.252;2023-07-31T15:53:40;27.30;12.60
439;DHT22;206;48.782;9.252;2023-07-31T15:56:06;27.30;12.50
439;DHT22;206;48.782;9.252;2023-07-31T15:58:32;27.30;12.70
439;DHT22;206;48.782;9.252;2023-07-31T16:00:58;27.30;12.80
439;DHT22;206;48.782;9.252;2023-07-31T16:03:23;27.30;12.80
439;DHT22;206;48.782;9.252;2023-07-31T16:05:49;27.20;13.00
439;DHT22;206;48.782;9.252;2023-07-31T16:08:14;27.20;12.90
439;DHT22;206;48.782;9.252;2023-07-31T16:10:40;27.20;13.00
439;DHT22;206;48.782;9.252;2023-07-31T16:13:06;27.10;13.20
439;DHT22;206;48.782;9.252;2023-07-31T16:15:32;27.10;13.40
439;DHT22;206;48.782;9.252;2023-07-31T16:17:57;27.00;13.60
439;DHT22;206;48.782;9.252;2023-07-31T16:20:23;27.00;13.70
439;DHT22;206;48.782;9.252;2023-07-31T16:22:49;27.00;13.40
439;DHT22;206;48.782;9.252;2023-07-31T16:25:15;27.10;13.60
439;DHT22;206;48.782;9.252;2023-07-31T16:27:40;27.10;13.70
439;DHT22;206;48.782;9.252;2023-07-31T16:30:07;27.10;13.50
439;DHT22;206;48.782;9.252;2023-07-31T16:32:32;26.90;13.80
439;DHT22;206;48.782;9.252;2023-07-31T16:34:58;26.90;14.10
439;DHT22;206;48.782;9.252;2023-07-31T16:37:24;26.70;14.20